Terminal Aerodrome Forecast
Issued by NWS

Home | Current Version | Previous Version | Text Only | Print | Product List | Glossary On
Versions: 1 2 3 4 5 6 7 8 9 10 11 12
000
FTUS43 KILX 011132
TAFDEC
TAF
KDEC 011132Z 0112/0212 21005KT P6SM SCT040
     FM011500 22010KT P6SM BKN040
     FM020100 21005KT P6SM SKC
      TEMPO 0208/0212 4SM BR=

USA.gov is the U.S. government's official web portal to all federal, state and local government web resources and services.